Mc Quady, Kentucky
Current Conditions -  °F | °C
As of 12:32 AM on Wednesday 26 Nov 2014 (Local Time) from KFTK Reporting Station
Clear Clear  
Wind Chill: 27°   Ceiling: Unl
Heat Index: 27°   Visibility: 10mi
Dew Point: 25°   Wind: 2mph
Humidity: 93%   Direction: 340°NNW
Pressure: 30.13"   Gusts: NA
Location:  37.7126°N, 86.518°W
Report Text: KFTK 260632Z AUTO 34002KT 10SM CLR M03/M04 A3013 RMK AO2
Loading
Personal Weather Stations






























Interactive Weather Map New forecast layout! Learn more

10-Day Weather Forecast

Advertisements
Track Severe Weather on mobile